sensor_id;sensor_type;location;lat;lon;timestamp;P1;durP1;ratioP1;P2;durP2;ratioP2
74523;SDS011;63074;44.696;10.358;2023-04-03T00:00:30;2.33;;;1.48;;
74523;SDS011;63074;44.696;10.358;2023-04-03T00:02:57;1.98;;;1.10;;
74523;SDS011;63074;44.696;10.358;2023-04-03T00:05:23;1.75;;;1.27;;
74523;SDS011;63074;44.696;10.358;2023-04-03T00:07:50;1.88;;;1.40;;
74523;SDS011;63074;44.696;10.358;2023-04-03T00:10:16;1.75;;;0.93;;
74523;SDS011;63074;44.696;10.358;2023-04-03T00:12:42;2.50;;;1.27;;
74523;SDS011;63074;44.696;10.358;2023-04-03T00:15:09;1.55;;;1.23;;
74523;SDS011;63074;44.696;10.358;2023-04-03T00:17:35;3.67;;;1.52;;
74523;SDS011;63074;44.696;10.358;2023-04-03T00:20:02;2.20;;;1.33;;
74523;SDS011;63074;44.696;10.358;2023-04-03T00:22:28;2.30;;;1.13;;
74523;SDS011;63074;44.696;10.358;2023-04-03T00:24:55;1.85;;;1.27;;
74523;SDS011;63074;44.696;10.358;2023-04-03T00:27:21;1.90;;;1.30;;
74523;SDS011;63074;44.696;10.358;2023-04-03T00:29:47;1.88;;;1.15;;
74523;SDS011;63074;44.696;10.358;2023-04-03T00:32:14;1.50;;;0.88;;
74523;SDS011;63074;44.696;10.358;2023-04-03T00:34:40;3.15;;;1.23;;
74523;SDS011;63074;44.696;10.358;2023-04-03T00:37:06;2.90;;;1.50;;
74523;SDS011;63074;44.696;10.358;2023-04-03T00:39:32;2.17;;;1.33;;
74523;SDS011;63074;44.696;10.358;2023-04-03T00:41:59;2.45;;;1.10;;
74523;SDS011;63074;44.696;10.358;2023-04-03T00:47:00;2.78;;;1.52;;
74523;SDS011;63074;44.696;10.358;2023-04-03T00:49:28;2.20;;;1.35;;
74523;SDS011;63074;44.696;10.358;2023-04-03T00:51:55;1.65;;;1.27;;
74523;SDS011;63074;44.696;10.358;2023-04-03T00:54:23;2.33;;;1.17;;
74523;SDS011;63074;44.696;10.358;2023-04-03T00:56:54;3.50;;;1.73;;
74523;SDS011;63074;44.696;10.358;2023-04-03T00:59:27;1.90;;;1.25;;
74523;SDS011;63074;44.696;10.358;2023-04-03T01:01:58;2.03;;;1.20;;
74523;SDS011;63074;44.696;10.358;2023-04-03T01:04:29;2.15;;;1.15;;
74523;SDS011;63074;44.696;10.358;2023-04-03T01:07:00;2.08;;;0.95;;
74523;SDS011;63074;44.696;10.358;2023-04-03T01:09:30;1.58;;;0.95;;
74523;SDS011;63074;44.696;10.358;2023-04-03T01:14:46;2.08;;;1.15;;
74523;SDS011;63074;44.696;10.358;2023-04-03T01:17:33;2.05;;;1.08;;
74523;SDS011;63074;44.696;10.358;2023-04-03T01:27:38;2.65;;;0.50;;
74523;SDS011;63074;44.696;10.358;2023-04-03T01:30:05;2.33;;;1.60;;
74523;SDS011;63074;44.696;10.358;2023-04-03T01:32:32;3.33;;;1.52;;
74523;SDS011;63074;44.696;10.358;2023-04-03T01:34:58;2.47;;;1.55;;
74523;SDS011;63074;44.696;10.358;2023-04-03T01:37:24;3.00;;;1.48;;
74523;SDS011;63074;44.696;10.358;2023-04-03T01:39:50;1.90;;;1.30;;
74523;SDS011;63074;44.696;10.358;2023-04-03T01:42:17;2.38;;;1.08;;
74523;SDS011;63074;44.696;10.358;2023-04-03T01:44:43;2.83;;;1.75;;
74523;SDS011;63074;44.696;10.358;2023-04-03T01:47:10;2.40;;;1.33;;
74523;SDS011;63074;44.696;10.358;2023-04-03T01:49:36;2.38;;;1.02;;
74523;SDS011;63074;44.696;10.358;2023-04-03T01:52:02;3.10;;;1.40;;
74523;SDS011;63074;44.696;10.358;2023-04-03T01:54:28;2.47;;;1.00;;
74523;SDS011;63074;44.696;10.358;2023-04-03T01:56:55;1.58;;;1.35;;
74523;SDS011;63074;44.696;10.358;2023-04-03T01:59:21;2.85;;;1.70;;
74523;SDS011;63074;44.696;10.358;2023-04-03T02:01:47;1.70;;;0.98;;
74523;SDS011;63074;44.696;10.358;2023-04-03T02:04:13;2.45;;;1.40;;
74523;SDS011;63074;44.696;10.358;2023-04-03T02:06:39;2.03;;;1.27;;
74523;SDS011;63074;44.696;10.358;2023-04-03T02:09:06;2.33;;;1.48;;
74523;SDS011;63074;44.696;10.358;2023-04-03T02:11:32;2.53;;;1.13;;
74523;SDS011;63074;44.696;10.358;2023-04-03T02:13:58;2.20;;;1.55;;
74523;SDS011;63074;44.696;10.358;2023-04-03T02:16:25;2.20;;;1.63;;
74523;SDS011;63074;44.696;10.358;2023-04-03T02:18:52;2.55;;;1.27;;
74523;SDS011;63074;44.696;10.358;2023-04-03T02:21:18;2.83;;;1.52;;
74523;SDS011;63074;44.696;10.358;2023-04-03T02:23:44;4.47;;;1.75;;
74523;SDS011;63074;44.696;10.358;2023-04-03T02:26:11;3.10;;;1.73;;
74523;SDS011;63074;44.696;10.358;2023-04-03T02:28:38;2.20;;;1.80;;
74523;SDS011;63074;44.696;10.358;2023-04-03T02:31:06;1.60;;;0.70;;
74523;SDS011;63074;44.696;10.358;2023-04-03T02:33:33;3.53;;;2.17;;
74523;SDS011;63074;44.696;10.358;2023-04-03T02:36:01;2.88;;;2.08;;
74523;SDS011;63074;44.696;10.358;2023-04-03T02:38:31;3.17;;;1.73;;
74523;SDS011;63074;44.696;10.358;2023-04-03T02:41:05;2.67;;;1.58;;
74523;SDS011;63074;44.696;10.358;2023-04-03T02:43:33;3.25;;;2.20;;
74523;SDS011;63074;44.696;10.358;2023-04-03T02:45:59;2.20;;;1.33;;
74523;SDS011;63074;44.696;10.358;2023-04-03T02:48:26;2.30;;;1.92;;
74523;SDS011;63074;44.696;10.358;2023-04-03T02:50:52;3.53;;;1.85;;
74523;SDS011;63074;44.696;10.358;2023-04-03T02:53:19;2.50;;;1.48;;
74523;SDS011;63074;44.696;10.358;2023-04-03T02:55:46;3.70;;;1.90;;
74523;SDS011;63074;44.696;10.358;2023-04-03T02:58:12;3.53;;;1.73;;
74523;SDS011;63074;44.696;10.358;2023-04-03T03:00:38;3.00;;;2.10;;
74523;SDS011;63074;44.696;10.358;2023-04-03T03:03:05;3.22;;;1.58;;
74523;SDS011;63074;44.696;10.358;2023-04-03T03:05:31;2.45;;;1.30;;
74523;SDS011;63074;44.696;10.358;2023-04-03T03:07:57;3.85;;;2.15;;
74523;SDS011;63074;44.696;10.358;2023-04-03T03:10:23;2.13;;;1.58;;
74523;SDS011;63074;44.696;10.358;2023-04-03T03:12:50;3.17;;;1.70;;
74523;SDS011;63074;44.696;10.358;2023-04-03T03:15:16;2.78;;;1.90;;
74523;SDS011;63074;44.696;10.358;2023-04-03T03:17:44;2.58;;;1.63;;
74523;SDS011;63074;44.696;10.358;2023-04-03T03:20:10;4.47;;;1.73;;
74523;SDS011;63074;44.696;10.358;2023-04-03T03:22:40;3.17;;;2.47;;
74523;SDS011;63074;44.696;10.358;2023-04-03T03:25:06;2.92;;;1.35;;
74523;SDS011;63074;44.696;10.358;2023-04-03T03:27:32;3.05;;;2.15;;
74523;SDS011;63074;44.696;10.358;2023-04-03T03:29:59;3.92;;;2.10;;
74523;SDS011;63074;44.696;10.358;2023-04-03T03:32:25;2.50;;;1.60;;
74523;SDS011;63074;44.696;10.358;2023-04-03T03:34:52;3.40;;;2.17;;
74523;SDS011;63074;44.696;10.358;2023-04-03T03:37:18;2.63;;;1.92;;
74523;SDS011;63074;44.696;10.358;2023-04-03T03:39:44;3.47;;;1.75;;
74523;SDS011;63074;44.696;10.358;2023-04-03T03:42:10;3.72;;;2.28;;
74523;SDS011;63074;44.696;10.358;2023-04-03T03:44:36;3.70;;;1.83;;
74523;SDS011;63074;44.696;10.358;2023-04-03T03:47:02;2.85;;;2.00;;
74523;SDS011;63074;44.696;10.358;2023-04-03T03:49:30;2.92;;;1.42;;
74523;SDS011;63074;44.696;10.358;2023-04-03T03:52:00;3.08;;;1.95;;
74523;SDS011;63074;44.696;10.358;2023-04-03T03:54:26;2.88;;;1.85;;
74523;SDS011;63074;44.696;10.358;2023-04-03T03:56:52;4.68;;;2.35;;
74523;SDS011;63074;44.696;10.358;2023-04-03T03:59:18;4.38;;;2.28;;
74523;SDS011;63074;44.696;10.358;2023-04-03T04:01:45;3.22;;;2.22;;
74523;SDS011;63074;44.696;10.358;2023-04-03T04:04:11;3.47;;;2.17;;
74523;SDS011;63074;44.696;10.358;2023-04-03T04:06:37;3.13;;;2.15;;
74523;SDS011;63074;44.696;10.358;2023-04-03T04:09:03;2.50;;;2.20;;
74523;SDS011;63074;44.696;10.358;2023-04-03T04:11:29;3.67;;;2.45;;
74523;SDS011;63074;44.696;10.358;2023-04-03T04:13:57;5.10;;;2.25;;
74523;SDS011;63074;44.696;10.358;2023-04-03T04:16:23;3.40;;;1.83;;
74523;SDS011;63074;44.696;10.358;2023-04-03T04:18:49;3.63;;;2.10;;
74523;SDS011;63074;44.696;10.358;2023-04-03T04:21:16;3.67;;;2.10;;
74523;SDS011;63074;44.696;10.358;2023-04-03T04:23:42;5.13;;;2.65;;
74523;SDS011;63074;44.696;10.358;2023-04-03T04:26:08;3.75;;;2.20;;
74523;SDS011;63074;44.696;10.358;2023-04-03T04:28:34;4.80;;;2.67;;
74523;SDS011;63074;44.696;10.358;2023-04-03T04:31:01;4.65;;;2.75;;
74523;SDS011;63074;44.696;10.358;2023-04-03T04:33:27;3.72;;;2.53;;
74523;SDS011;63074;44.696;10.358;2023-04-03T04:35:53;3.80;;;2.42;;
74523;SDS011;63074;44.696;10.358;2023-04-03T04:38:19;5.47;;;3.20;;
74523;SDS011;63074;44.696;10.358;2023-04-03T04:40:46;5.22;;;2.08;;
74523;SDS011;63074;44.696;10.358;2023-04-03T04:43:13;3.15;;;2.28;;
74523;SDS011;63074;44.696;10.358;2023-04-03T04:45:40;3.70;;;2.22;;
74523;SDS011;63074;44.696;10.358;2023-04-03T04:48:06;4.88;;;2.50;;
74523;SDS011;63074;44.696;10.358;2023-04-03T04:50:32;5.18;;;3.33;;
74523;SDS011;63074;44.696;10.358;2023-04-03T04:52:59;3.53;;;2.25;;
74523;SDS011;63074;44.696;10.358;2023-04-03T04:55:25;4.03;;;2.42;;
74523;SDS011;63074;44.696;10.358;2023-04-03T04:57:51;4.57;;;2.95;;
74523;SDS011;63074;44.696;10.358;2023-04-03T05:00:18;4.43;;;2.70;;
74523;SDS011;63074;44.696;10.358;2023-04-03T05:02:44;3.38;;;2.30;;
74523;SDS011;63074;44.696;10.358;2023-04-03T05:05:10;5.32;;;2.28;;
74523;SDS011;63074;44.696;10.358;2023-04-03T05:07:36;3.38;;;2.28;;
74523;SDS011;63074;44.696;10.358;2023-04-03T05:10:03;4.70;;;2.20;;
74523;SDS011;63074;44.696;10.358;2023-04-03T05:12:30;4.13;;;2.22;;
74523;SDS011;63074;44.696;10.358;2023-04-03T05:14:57;4.15;;;2.70;;
74523;SDS011;63074;44.696;10.358;2023-04-03T05:17:23;4.60;;;2.75;;
74523;SDS011;63074;44.696;10.358;2023-04-03T05:19:49;3.42;;;1.90;;
74523;SDS011;63074;44.696;10.358;2023-04-03T05:22:15;5.18;;;2.63;;
74523;SDS011;63074;44.696;10.358;2023-04-03T05:24:41;4.25;;;2.15;;
74523;SDS011;63074;44.696;10.358;2023-04-03T05:27:08;3.70;;;2.47;;
74523;SDS011;63074;44.696;10.358;2023-04-03T05:29:34;4.25;;;2.70;;
74523;SDS011;63074;44.696;10.358;2023-04-03T05:32:00;4.10;;;2.65;;
74523;SDS011;63074;44.696;10.358;2023-04-03T05:34:26;3.53;;;2.53;;
74523;SDS011;63074;44.696;10.358;2023-04-03T05:36:53;4.13;;;2.72;;
74523;SDS011;63074;44.696;10.358;2023-04-03T05:39:19;4.72;;;2.20;;
74523;SDS011;63074;44.696;10.358;2023-04-03T05:41:46;6.63;;;2.90;;
74523;SDS011;63074;44.696;10.358;2023-04-03T05:44:12;4.70;;;3.03;;
74523;SDS011;63074;44.696;10.358;2023-04-03T05:46:47;6.90;;;2.55;;
74523;SDS011;63074;44.696;10.358;2023-04-03T05:49:13;3.38;;;1.77;;
74523;SDS011;63074;44.696;10.358;2023-04-03T05:51:40;5.32;;;3.20;;
74523;SDS011;63074;44.696;10.358;2023-04-03T05:54:11;5.43;;;2.75;;
74523;SDS011;63074;44.696;10.358;2023-04-03T05:56:49;4.63;;;2.65;;
74523;SDS011;63074;44.696;10.358;2023-04-03T05:59:16;2.63;;;1.63;;
74523;SDS011;63074;44.696;10.358;2023-04-03T06:01:43;4.95;;;2.28;;
74523;SDS011;63074;44.696;10.358;2023-04-03T06:04:10;5.07;;;2.97;;
74523;SDS011;63074;44.696;10.358;2023-04-03T06:06:44;6.22;;;2.28;;
74523;SDS011;63074;44.696;10.358;2023-04-03T06:09:18;4.75;;;3.03;;
74523;SDS011;63074;44.696;10.358;2023-04-03T06:11:46;4.85;;;3.05;;
74523;SDS011;63074;44.696;10.358;2023-04-03T06:14:13;4.32;;;2.45;;
74523;SDS011;63074;44.696;10.358;2023-04-03T06:16:39;4.25;;;2.20;;
74523;SDS011;63074;44.696;10.358;2023-04-03T06:19:06;6.22;;;3.45;;
74523;SDS011;63074;44.696;10.358;2023-04-03T06:21:33;5.40;;;3.22;;
74523;SDS011;63074;44.696;10.358;2023-04-03T06:24:00;5.60;;;3.03;;
74523;SDS011;63074;44.696;10.358;2023-04-03T06:26:30;5.38;;;3.05;;
74523;SDS011;63074;44.696;10.358;2023-04-03T06:28:57;4.50;;;3.15;;
74523;SDS011;63074;44.696;10.358;2023-04-03T06:31:23;6.05;;;3.70;;
74523;SDS011;63074;44.696;10.358;2023-04-03T06:33:49;5.90;;;3.00;;
74523;SDS011;63074;44.696;10.358;2023-04-03T06:36:17;5.40;;;3.50;;
74523;SDS011;63074;44.696;10.358;2023-04-03T06:38:45;6.53;;;3.78;;
74523;SDS011;63074;44.696;10.358;2023-04-03T06:41:12;6.35;;;3.03;;
74523;SDS011;63074;44.696;10.358;2023-04-03T06:43:38;8.52;;;4.15;;
74523;SDS011;63074;44.696;10.358;2023-04-03T06:46:04;5.75;;;3.50;;
74523;SDS011;63074;44.696;10.358;2023-04-03T06:48:31;7.68;;;4.22;;
74523;SDS011;63074;44.696;10.358;2023-04-03T06:50:57;7.90;;;4.20;;
74523;SDS011;63074;44.696;10.358;2023-04-03T06:53:23;8.23;;;5.15;;
74523;SDS011;63074;44.696;10.358;2023-04-03T06:55:50;7.80;;;4.88;;
74523;SDS011;63074;44.696;10.358;2023-04-03T06:58:16;9.48;;;4.72;;
74523;SDS011;63074;44.696;10.358;2023-04-03T07:00:42;8.05;;;5.07;;
74523;SDS011;63074;44.696;10.358;2023-04-03T07:03:08;7.97;;;5.72;;
74523;SDS011;63074;44.696;10.358;2023-04-03T07:05:35;9.82;;;5.95;;
74523;SDS011;63074;44.696;10.358;2023-04-03T07:08:01;7.45;;;5.90;;
74523;SDS011;63074;44.696;10.358;2023-04-03T07:10:27;9.65;;;6.10;;
74523;SDS011;63074;44.696;10.358;2023-04-03T07:12:53;7.80;;;5.32;;
74523;SDS011;63074;44.696;10.358;2023-04-03T07:15:19;8.93;;;5.53;;
74523;SDS011;63074;44.696;10.358;2023-04-03T15:07:13;1.90;;;0.40;;
74523;SDS011;63074;44.696;10.358;2023-04-03T15:10:16;1.52;;;0.52;;
74523;SDS011;63074;44.696;10.358;2023-04-03T15:12:48;3.22;;;0.32;;
74523;SDS011;63074;44.696;10.358;2023-04-03T15:15:16;2.50;;;0.40;;
74523;SDS011;63074;44.696;10.358;2023-04-03T15:17:44;2.78;;;0.50;;
74523;SDS011;63074;44.696;10.358;2023-04-03T15:20:17;2.03;;;0.70;;
74523;SDS011;63074;44.696;10.358;2023-04-03T15:22:45;1.05;;;0.38;;
74523;SDS011;63074;44.696;10.358;2023-04-03T15:25:11;1.88;;;0.60;;
74523;SDS011;63074;44.696;10.358;2023-04-03T15:27:44;0.90;;;0.40;;
74523;SDS011;63074;44.696;10.358;2023-04-03T15:30:13;2.45;;;0.20;;
74523;SDS011;63074;44.696;10.358;2023-04-03T15:32:41;0.93;;;0.20;;
74523;SDS011;63074;44.696;10.358;2023-04-03T15:35:07;1.83;;;0.50;;
74523;SDS011;63074;44.696;10.358;2023-04-03T15:37:34;2.35;;;0.50;;
74523;SDS011;63074;44.696;10.358;2023-04-03T15:40:02;1.20;;;0.40;;
74523;SDS011;63074;44.696;10.358;2023-04-03T15:42:31;1.20;;;0.32;;
74523;SDS011;63074;44.696;10.358;2023-04-03T15:44:57;1.13;;;0.40;;
74523;SDS011;63074;44.696;10.358;2023-04-03T15:47:24;1.58;;;0.50;;
74523;SDS011;63074;44.696;10.358;2023-04-03T15:49:51;1.20;;;0.40;;
74523;SDS011;63074;44.696;10.358;2023-04-03T15:52:19;0.98;;;0.47;;
74523;SDS011;63074;44.696;10.358;2023-04-03T15:54:52;2.67;;;0.93;;
74523;SDS011;63074;44.696;10.358;2023-04-03T15:57:24;2.17;;;0.20;;
74523;SDS011;63074;44.696;10.358;2023-04-03T15:59:52;2.60;;;0.50;;
74523;SDS011;63074;44.696;10.358;2023-04-03T16:02:21;2.80;;;1.05;;
74523;SDS011;63074;44.696;10.358;2023-04-03T16:04:51;1.83;;;0.60;;
74523;SDS011;63074;44.696;10.358;2023-04-03T16:09:43;4.70;;;0.57;;
74523;SDS011;63074;44.696;10.358;2023-04-03T16:12:10;1.30;;;0.32;;
74523;SDS011;63074;44.696;10.358;2023-04-03T16:14:36;1.05;;;0.40;;
74523;SDS011;63074;44.696;10.358;2023-04-03T16:17:12;1.30;;;0.50;;
74523;SDS011;63074;44.696;10.358;2023-04-03T16:19:38;3.63;;;0.70;;
74523;SDS011;63074;44.696;10.358;2023-04-03T16:22:11;1.98;;;0.43;;
74523;SDS011;63074;44.696;10.358;2023-04-03T16:24:39;1.45;;;0.63;;
74523;SDS011;63074;44.696;10.358;2023-04-03T16:27:05;2.47;;;0.40;;
74523;SDS011;63074;44.696;10.358;2023-04-03T16:29:35;1.58;;;0.50;;
74523;SDS011;63074;44.696;10.358;2023-04-03T16:32:01;1.13;;;0.35;;
74523;SDS011;63074;44.696;10.358;2023-04-03T16:34:28;1.33;;;0.52;;
74523;SDS011;63074;44.696;10.358;2023-04-03T16:39:24;1.35;;;0.45;;
74523;SDS011;63074;44.696;10.358;2023-04-03T16:41:50;1.83;;;0.30;;
74523;SDS011;63074;44.696;10.358;2023-04-03T16:44:17;2.22;;;0.60;;
74523;SDS011;63074;44.696;10.358;2023-04-03T16:46:43;1.73;;;0.43;;
74523;SDS011;63074;44.696;10.358;2023-04-03T16:49:10;1.85;;;0.60;;
74523;SDS011;63074;44.696;10.358;2023-04-03T16:51:36;2.55;;;0.35;;
74523;SDS011;63074;44.696;10.358;2023-04-03T16:54:07;2.17;;;0.82;;
74523;SDS011;63074;44.696;10.358;2023-04-03T16:56:37;2.53;;;1.05;;
74523;SDS011;63074;44.696;10.358;2023-04-03T16:59:06;2.92;;;0.75;;
74523;SDS011;63074;44.696;10.358;2023-04-03T17:01:55;1.92;;;0.40;;
74523;SDS011;63074;44.696;10.358;2023-04-03T17:04:22;1.90;;;0.70;;
74523;SDS011;63074;44.696;10.358;2023-04-03T17:06:53;1.55;;;0.50;;
74523;SDS011;63074;44.696;10.358;2023-04-03T17:09:30;2.58;;;1.35;;
74523;SDS011;63074;44.696;10.358;2023-04-03T17:11:56;3.42;;;0.60;;
74523;SDS011;63074;44.696;10.358;2023-04-03T17:14:25;3.42;;;0.50;;
74523;SDS011;63074;44.696;10.358;2023-04-03T17:16:52;2.00;;;0.60;;
74523;SDS011;63074;44.696;10.358;2023-04-03T17:19:20;1.27;;;0.50;;
74523;SDS011;63074;44.696;10.358;2023-04-03T17:21:57;2.42;;;0.30;;
74523;SDS011;63074;44.696;10.358;2023-04-03T17:24:27;2.00;;;0.57;;
74523;SDS011;63074;44.696;10.358;2023-04-03T17:27:07;1.35;;;0.40;;
74523;SDS011;63074;44.696;10.358;2023-04-03T17:29:55;1.38;;;1.05;;
74523;SDS011;63074;44.696;10.358;2023-04-03T17:32:25;1.45;;;0.50;;
74523;SDS011;63074;44.696;10.358;2023-04-03T17:34:52;4.03;;;1.00;;
74523;SDS011;63074;44.696;10.358;2023-04-03T17:37:18;1.48;;;0.55;;
74523;SDS011;63074;44.696;10.358;2023-04-03T17:39:44;1.30;;;0.65;;
74523;SDS011;63074;44.696;10.358;2023-04-03T17:42:11;1.35;;;0.63;;
74523;SDS011;63074;44.696;10.358;2023-04-03T17:44:37;2.35;;;0.70;;
74523;SDS011;63074;44.696;10.358;2023-04-03T17:47:08;1.90;;;0.55;;
74523;SDS011;63074;44.696;10.358;2023-04-03T17:49:44;2.58;;;0.35;;
74523;SDS011;63074;44.696;10.358;2023-04-03T17:52:10;3.92;;;0.35;;
74523;SDS011;63074;44.696;10.358;2023-04-03T17:54:37;1.25;;;0.50;;
74523;SDS011;63074;44.696;10.358;2023-04-03T17:57:03;2.55;;;0.50;;
74523;SDS011;63074;44.696;10.358;2023-04-03T17:59:29;2.40;;;0.82;;
74523;SDS011;63074;44.696;10.358;2023-04-03T18:01:56;2.28;;;0.50;;
74523;SDS011;63074;44.696;10.358;2023-04-03T18:04:27;1.15;;;0.50;;
74523;SDS011;63074;44.696;10.358;2023-04-03T18:06:55;1.15;;;0.55;;
74523;SDS011;63074;44.696;10.358;2023-04-03T18:09:25;3.67;;;2.28;;
74523;SDS011;63074;44.696;10.358;2023-04-03T18:11:57;5.68;;;5.18;;
74523;SDS011;63074;44.696;10.358;2023-04-03T18:14:27;4.28;;;3.88;;
74523;SDS011;63074;44.696;10.358;2023-04-03T18:16:56;3.20;;;1.60;;
74523;SDS011;63074;44.696;10.358;2023-04-03T18:19:24;3.53;;;1.55;;
74523;SDS011;63074;44.696;10.358;2023-04-03T18:21:51;5.70;;;5.15;;
74523;SDS011;63074;44.696;10.358;2023-04-03T18:24:20;3.92;;;2.00;;
74523;SDS011;63074;44.696;10.358;2023-04-03T18:26:52;4.25;;;2.50;;
74523;SDS011;63074;44.696;10.358;2023-04-03T18:29:24;2.95;;;1.35;;
74523;SDS011;63074;44.696;10.358;2023-04-03T18:31:53;2.60;;;1.50;;
74523;SDS011;63074;44.696;10.358;2023-04-03T18:34:23;2.40;;;1.45;;
74523;SDS011;63074;44.696;10.358;2023-04-03T18:36:50;3.70;;;1.15;;
74523;SDS011;63074;44.696;10.358;2023-04-03T18:39:18;5.22;;;3.25;;
74523;SDS011;63074;44.696;10.358;2023-04-03T18:44:19;6.28;;;4.10;;
74523;SDS011;63074;44.696;10.358;2023-04-03T18:46:52;3.70;;;2.20;;
74523;SDS011;63074;44.696;10.358;2023-04-03T18:49:22;3.95;;;2.55;;
74523;SDS011;63074;44.696;10.358;2023-04-03T18:51:54;4.45;;;2.17;;
74523;SDS011;63074;44.696;10.358;2023-04-03T18:54:30;3.80;;;2.40;;
74523;SDS011;63074;44.696;10.358;2023-04-03T18:57:12;4.05;;;2.33;;
74523;SDS011;63074;44.696;10.358;2023-04-03T18:59:46;5.35;;;2.50;;
74523;SDS011;63074;44.696;10.358;2023-04-03T19:02:16;4.78;;;2.03;;
74523;SDS011;63074;44.696;10.358;2023-04-03T19:04:46;5.57;;;1.88;;
74523;SDS011;63074;44.696;10.358;2023-04-03T19:07:14;4.05;;;2.08;;
74523;SDS011;63074;44.696;10.358;2023-04-03T19:12:14;3.55;;;3.08;;
74523;SDS011;63074;44.696;10.358;2023-04-03T19:14:42;5.43;;;4.03;;
74523;SDS011;63074;44.696;10.358;2023-04-03T19:17:13;6.65;;;3.42;;
74523;SDS011;63074;44.696;10.358;2023-04-03T19:19:43;4.65;;;1.50;;
74523;SDS011;63074;44.696;10.358;2023-04-03T19:22:14;5.47;;;2.58;;
74523;SDS011;63074;44.696;10.358;2023-04-03T19:24:41;3.42;;;1.25;;
74523;SDS011;63074;44.696;10.358;2023-04-03T19:27:11;3.28;;;2.42;;
74523;SDS011;63074;44.696;10.358;2023-04-03T19:29:40;2.40;;;1.77;;
74523;SDS011;63074;44.696;10.358;2023-04-03T19:32:15;4.07;;;2.45;;
74523;SDS011;63074;44.696;10.358;2023-04-03T19:34:50;3.80;;;2.97;;
74523;SDS011;63074;44.696;10.358;2023-04-03T19:37:22;2.58;;;2.35;;
74523;SDS011;63074;44.696;10.358;2023-04-03T19:39:51;5.35;;;1.92;;
74523;SDS011;63074;44.696;10.358;2023-04-03T19:42:17;3.28;;;2.05;;
74523;SDS011;63074;44.696;10.358;2023-04-03T19:44:54;4.05;;;2.60;;
74523;SDS011;63074;44.696;10.358;2023-04-03T19:47:42;3.50;;;1.95;;
74523;SDS011;63074;44.696;10.358;2023-04-03T19:50:09;4.97;;;3.25;;
74523;SDS011;63074;44.696;10.358;2023-04-03T19:52:36;4.47;;;2.38;;
74523;SDS011;63074;44.696;10.358;2023-04-03T19:55:02;3.83;;;2.53;;
74523;SDS011;63074;44.696;10.358;2023-04-03T19:57:32;3.55;;;2.13;;
74523;SDS011;63074;44.696;10.358;2023-04-03T20:00:12;4.75;;;1.98;;
74523;SDS011;63074;44.696;10.358;2023-04-03T20:02:42;4.43;;;2.20;;
74523;SDS011;63074;44.696;10.358;2023-04-03T20:05:11;4.25;;;2.03;;
74523;SDS011;63074;44.696;10.358;2023-04-03T20:07:41;3.80;;;2.88;;
74523;SDS011;63074;44.696;10.358;2023-04-03T20:10:13;3.17;;;1.92;;
74523;SDS011;63074;44.696;10.358;2023-04-03T20:12:45;3.92;;;3.47;;
74523;SDS011;63074;44.696;10.358;2023-04-03T20:15:38;4.75;;;2.42;;
74523;SDS011;63074;44.696;10.358;2023-04-03T20:18:13;3.47;;;2.42;;
74523;SDS011;63074;44.696;10.358;2023-04-03T20:20:52;3.90;;;2.50;;
74523;SDS011;63074;44.696;10.358;2023-04-03T20:23:27;4.22;;;2.00;;
74523;SDS011;63074;44.696;10.358;2023-04-03T20:26:00;7.55;;;2.15;;
74523;SDS011;63074;44.696;10.358;2023-04-03T20:29:01;3.88;;;3.03;;
74523;SDS011;63074;44.696;10.358;2023-04-03T20:31:36;4.07;;;2.28;;
74523;SDS011;63074;44.696;10.358;2023-04-03T20:34:28;2.65;;;1.63;;
74523;SDS011;63074;44.696;10.358;2023-04-03T20:42:52;6.03;;;2.85;;
74523;SDS011;63074;44.696;10.358;2023-04-03T20:45:53;2.88;;;1.83;;
74523;SDS011;63074;44.696;10.358;2023-04-03T20:48:29;5.63;;;1.92;;
74523;SDS011;63074;44.696;10.358;2023-04-03T20:50:57;3.58;;;2.08;;
74523;SDS011;63074;44.696;10.358;2023-04-03T20:53:53;3.05;;;1.80;;
74523;SDS011;63074;44.696;10.358;2023-04-03T20:56:23;3.45;;;1.90;;
74523;SDS011;63074;44.696;10.358;2023-04-03T20:59:16;3.70;;;1.90;;
74523;SDS011;63074;44.696;10.358;2023-04-03T21:01:55;5.13;;;2.20;;
74523;SDS011;63074;44.696;10.358;2023-04-03T21:04:38;3.78;;;1.75;;
74523;SDS011;63074;44.696;10.358;2023-04-03T21:21:45;4.53;;;2.30;;
74523;SDS011;63074;44.696;10.358;2023-04-03T21:24:12;3.50;;;2.67;;
74523;SDS011;63074;44.696;10.358;2023-04-03T21:26:43;4.65;;;1.90;;
74523;SDS011;63074;44.696;10.358;2023-04-03T21:31:50;4.03;;;2.88;;
74523;SDS011;63074;44.696;10.358;2023-04-03T21:34:17;4.00;;;2.28;;
74523;SDS011;63074;44.696;10.358;2023-04-03T21:37:06;4.28;;;2.65;;
74523;SDS011;63074;44.696;10.358;2023-04-03T21:39:45;5.57;;;3.13;;
74523;SDS011;63074;44.696;10.358;2023-04-03T21:42:12;4.13;;;2.58;;
74523;SDS011;63074;44.696;10.358;2023-04-03T21:44:41;6.53;;;2.55;;
74523;SDS011;63074;44.696;10.358;2023-04-03T21:47:15;7.75;;;3.35;;
74523;SDS011;63074;44.696;10.358;2023-04-03T21:49:43;5.75;;;3.30;;
74523;SDS011;63074;44.696;10.358;2023-04-03T21:52:16;5.20;;;3.38;;
74523;SDS011;63074;44.696;10.358;2023-04-03T21:54:42;3.70;;;2.97;;
74523;SDS011;63074;44.696;10.358;2023-04-03T21:57:09;4.90;;;3.00;;
74523;SDS011;63074;44.696;10.358;2023-04-03T21:59:38;6.50;;;2.65;;
74523;SDS011;63074;44.696;10.358;2023-04-03T22:02:06;5.30;;;2.75;;
74523;SDS011;63074;44.696;10.358;2023-04-03T22:04:36;5.90;;;2.83;;
74523;SDS011;63074;44.696;10.358;2023-04-03T22:07:05;5.32;;;3.15;;
74523;SDS011;63074;44.696;10.358;2023-04-03T22:09:31;6.88;;;3.10;;
74523;SDS011;63074;44.696;10.358;2023-04-03T22:11:58;4.78;;;3.55;;
74523;SDS011;63074;44.696;10.358;2023-04-03T22:14:35;4.00;;;3.20;;
74523;SDS011;63074;44.696;10.358;2023-04-03T22:17:04;6.72;;;3.45;;
74523;SDS011;63074;44.696;10.358;2023-04-03T22:19:44;6.50;;;3.60;;
74523;SDS011;63074;44.696;10.358;2023-04-03T22:22:19;6.05;;;3.47;;
74523;SDS011;63074;44.696;10.358;2023-04-03T22:24:48;6.35;;;3.33;;
74523;SDS011;63074;44.696;10.358;2023-04-03T22:27:17;8.13;;;3.58;;
74523;SDS011;63074;44.696;10.358;2023-04-03T22:29:52;8.23;;;3.35;;
74523;SDS011;63074;44.696;10.358;2023-04-03T22:32:21;7.45;;;3.22;;
74523;SDS011;63074;44.696;10.358;2023-04-03T22:34:57;6.70;;;4.00;;
74523;SDS011;63074;44.696;10.358;2023-04-03T22:37:25;5.70;;;3.92;;
74523;SDS011;63074;44.696;10.358;2023-04-03T22:39:52;5.82;;;3.38;;
74523;SDS011;63074;44.696;10.358;2023-04-03T22:42:19;5.97;;;3.70;;
74523;SDS011;63074;44.696;10.358;2023-04-03T22:44:48;8.07;;;4.05;;
74523;SDS011;63074;44.696;10.358;2023-04-03T22:47:19;4.75;;;3.17;;
74523;SDS011;63074;44.696;10.358;2023-04-03T22:49:51;5.95;;;3.53;;
74523;SDS011;63074;44.696;10.358;2023-04-03T22:52:18;5.03;;;3.13;;
74523;SDS011;63074;44.696;10.358;2023-04-03T22:54:46;8.15;;;4.80;;
74523;SDS011;63074;44.696;10.358;2023-04-03T22:57:18;5.68;;;3.08;;
74523;SDS011;63074;44.696;10.358;2023-04-03T22:59:54;4.85;;;3.10;;
74523;SDS011;63074;44.696;10.358;2023-04-03T23:02:22;3.97;;;3.58;;
74523;SDS011;63074;44.696;10.358;2023-04-03T23:04:52;5.03;;;3.30;;
74523;SDS011;63074;44.696;10.358;2023-04-03T23:07:21;4.95;;;2.95;;
74523;SDS011;63074;44.696;10.358;2023-04-03T23:09:51;5.50;;;3.03;;
74523;SDS011;63074;44.696;10.358;2023-04-03T23:12:23;5.38;;;3.05;;
74523;SDS011;63074;44.696;10.358;2023-04-03T23:14:52;5.90;;;3.38;;
74523;SDS011;63074;44.696;10.358;2023-04-03T23:17:19;5.63;;;2.83;;
74523;SDS011;63074;44.696;10.358;2023-04-03T23:19:50;5.80;;;3.45;;